Time;durP1;ratioP1;P1;durP2;ratioP2;P2;SDS_P1;SDS_P2;PMS_P1;PMS_P2;Temp;Humidity;BMP_temperature;BMP_pressure;BME280_temperature;BME280_humidity;BME280_pressure;Samples;Min_cycle;Max_cycle;Signal;HPM_P1;HPM_P2
2022/11/17 00:00:52;;;;;;;1.23;0.52;;;;;;;18.71;48.50;98517.97;16128182;19;129412;-43
2022/11/17 00:06:14;;;;;;;1.67;0.50;;;;;;;18.69;48.06;98515.50;16126753;19;129094;-42
2022/11/17 00:17:16;;;;;;;1.27;0.60;;;;;;;18.64;48.50;98498.97;16127635;19;129612;-43
2022/11/17 00:22:38;;;;;;;1.50;0.50;;;;;;;18.63;48.37;98513.13;16125680;19;129779;-44
2022/11/17 00:27:59;;;;;;;1.58;0.40;;;;;;;18.60;48.50;98473.84;16126331;19;129697;-43
2022/11/17 00:39:01;;;;;;;1.70;0.50;;;;;;;18.58;48.73;98461.44;16124762;19;128928;-43
2022/11/17 00:44:24;;;;;;;0.93;0.30;;;;;;;18.57;48.89;98451.50;16123474;19;129647;-43
2022/11/17 00:49:46;;;;;;;1.00;0.30;;;;;;;18.55;48.68;98437.94;16125505;19;129609;-42
2022/11/17 00:55:08;;;;;;;1.02;0.32;;;;;;;18.54;49.00;98441.03;16123870;19;129757;-43
2022/11/17 01:00:29;;;;;;;2.83;0.40;;;;;;;18.53;48.75;98436.59;16121869;19;130367;-43
2022/11/17 01:05:51;;;;;;;1.30;0.63;;;;;;;18.52;48.88;98418.34;16125819;19;130076;-42
2022/11/17 01:11:17;;;;;;;0.45;0.30;;;;;;;18.53;48.79;98422.75;16124448;19;129649;-42
2022/11/17 01:16:39;;;;;;;0.50;0.20;;;;;;;18.50;48.85;98423.38;16121292;19;129518;-43
2022/11/17 01:22:01;;;;;;;3.25;0.30;;;;;;;18.49;48.87;98418.97;16122834;19;129096;-42
2022/11/17 01:27:23;;;;;;;0.40;0.20;;;;;;;18.45;48.77;98416.81;16122916;19;130125;-43
2022/11/17 01:32:44;;;;;;;0.38;0.20;;;;;;;18.45;49.15;98414.06;16119547;19;129515;-42
2022/11/17 01:38:06;;;;;;;3.75;0.40;;;;;;;18.44;49.23;98409.66;16119099;19;130096;-44
2022/11/17 01:43:49;;;;;;;3.70;0.40;;;;;;;18.44;49.14;98395.81;16119742;19;129528;-42
2022/11/17 01:49:21;;;;;;;0.60;0.20;;;;;;;18.42;49.14;98378.69;16136579;19;133598;-42
2022/11/17 01:54:45;;;;;;;2.08;0.15;;;;;;;18.41;48.98;98363.19;16132091;19;129016;-43
2022/11/17 02:00:09;;;;;;;0.28;0.20;;;;;;;18.41;49.38;98351.28;16135739;19;129978;-43
2022/11/17 02:05:41;;;;;;;0.57;0.10;;;;;;;18.39;49.17;98346.06;16133632;19;129442;-43
2022/11/17 02:11:08;;;;;;;2.53;0.10;;;;;;;18.39;49.34;98343.28;16133612;19;129565;-43
2022/11/17 02:16:30;;;;;;;0.47;0.20;;;;;;;18.38;49.03;98344.38;16135431;19;133403;-42
2022/11/17 02:22:08;;;;;;;0.85;0.22;;;;;;;18.37;49.55;98341.94;16134177;19;129107;-43
2022/11/17 02:27:39;;;;;;;0.50;0.20;;;;;;;18.35;49.28;98333.94;16133687;19;130593;-43
2022/11/17 02:33:15;;;;;;;0.20;0.13;;;;;;;18.35;49.29;98328.38;16134121;19;129713;-42
2022/11/17 02:38:43;;;;;;;0.40;0.20;;;;;;;18.36;49.63;98330.03;16134814;19;129562;-43
2022/11/17 02:44:23;;;;;;;0.20;0.20;;;;;;;18.35;49.17;98317.31;16134029;19;129556;-42
2022/11/17 02:49:55;;;;;;;0.98;0.10;;;;;;;18.35;49.48;98286.88;16133153;19;129463;-43
2022/11/17 02:55:17;;;;;;;0.47;0.20;;;;;;;18.33;49.27;98285.56;16132624;19;129809;-43
2022/11/17 03:00:48;;;;;;;0.70;0.20;;;;;;;18.32;49.26;98268.13;16127303;19;130652;-43
2022/11/17 03:06:31;;;;;;;0.65;0.20;;;;;;;18.32;49.50;98265.38;16130375;19;129566;-42
2022/11/17 03:12:04;;;;;;;0.50;0.10;;;;;;;18.30;49.22;98262.88;16132762;19;130059;-43
2022/11/17 03:17:48;;;;;;;2.40;0.20;;;;;;;18.33;49.27;98253.16;16132296;19;129981;-43
2022/11/17 03:23:18;;;;;;;0.90;0.30;;;;;;;18.31;48.94;98249.88;16131420;19;131064;-43
2022/11/17 03:28:42;;;;;;;0.90;0.20;;;;;;;18.29;49.15;98254.91;16131330;19;128917;-42
2022/11/17 03:34:10;;;;;;;0.45;0.20;;;;;;;18.28;49.22;98244.97;16129934;19;130539;-43
2022/11/17 03:39:35;;;;;;;0.40;0.20;;;;;;;18.28;48.94;98231.13;16132925;19;129170;-43
2022/11/17 03:45:21;;;;;;;0.40;0.20;;;;;;;18.29;49.07;98219.75;16129642;19;129293;-43
2022/11/17 03:50:53;;;;;;;1.20;0.30;;;;;;;18.28;48.85;98233.91;16128076;19;129295;-43
2022/11/17 03:56:24;;;;;;;0.88;0.13;;;;;;;18.26;48.97;98208.47;16131953;19;129880;-43
2022/11/17 04:01:45;;;;;;;0.63;0.20;;;;;;;18.24;49.15;98199.66;16127289;19;131427;-43
2022/11/17 04:07:07;;;;;;;0.75;0.30;;;;;;;18.24;49.08;98211.56;16123346;19;130861;-43
2022/11/17 04:18:10;;;;;;;3.72;0.20;;;;;;;18.24;48.71;98255.00;16127405;19;129710;-43
2022/11/17 04:23:31;;;;;;;0.90;0.30;;;;;;;18.23;48.89;98240.38;16126270;19;129605;-44
2022/11/17 04:28:54;;;;;;;0.60;0.15;;;;;;;18.23;48.77;98236.75;16127812;19;129058;-42
2022/11/17 04:34:15;;;;;;;0.65;0.30;;;;;;;18.23;48.99;98236.75;16128140;19;133334;-43
2022/11/17 04:39:37;;;;;;;1.10;0.52;;;;;;;18.22;49.13;98235.94;16125911;19;129407;-44
2022/11/17 04:44:59;;;;;;;1.95;0.30;;;;;;;18.22;48.95;98237.88;16127336;19;129295;-44
2022/11/17 04:50:21;;;;;;;2.67;0.35;;;;;;;18.22;49.12;98240.66;16126282;19;129362;-46
2022/11/17 04:55:42;;;;;;;1.50;0.30;;;;;;;18.21;49.03;98234.31;16130752;19;130047;-43
2022/11/17 05:01:14;;;;;;;1.35;0.20;;;;;;;18.21;48.93;98245.38;16122953;19;129389;-46
2022/11/17 05:06:43;;;;;;;2.25;0.30;;;;;;;18.23;48.92;98253.38;16122709;19;129437;-46
2022/11/17 05:17:45;;;;;;;2.05;0.40;;;;;;;18.20;48.51;98259.53;16122693;19;129799;-46
2022/11/17 05:28:47;;;;;;;7.22;0.45;;;;;;;18.19;48.93;98280.03;16122651;19;129428;-46
2022/11/17 05:34:11;;;;;;;0.70;0.25;;;;;;;18.20;48.50;98295.50;16124716;19;129506;-46
2022/11/17 05:39:33;;;;;;;2.13;0.50;;;;;;;18.19;48.73;98302.16;16122078;19;129053;-46
2022/11/17 05:44:54;;;;;;;3.85;0.47;;;;;;;18.19;48.66;98299.41;16123397;19;129876;-46
2022/11/17 05:50:18;;;;;;;1.35;0.40;;;;;;;18.18;48.63;98303.28;16120760;19;129349;-43
2022/11/17 05:55:39;;;;;;;2.03;0.30;;;;;;;18.16;48.63;98314.66;16120658;19;129539;-44
2022/11/17 06:01:02;;;;;;;1.42;0.40;;;;;;;18.17;48.49;98316.28;16121243;19;129196;-46
2022/11/17 06:06:24;;;;;;;1.50;0.40;;;;;;;18.15;48.47;98322.16;16120161;19;131169;-47
2022/11/17 06:11:46;;;;;;;1.25;0.35;;;;;;;18.15;48.25;98330.44;16121385;19;129205;-43
2022/11/17 06:17:26;;;;;;;1.08;0.30;;;;;;;18.17;48.37;98326.56;16117617;19;129765;-46
2022/11/17 06:22:49;;;;;;;2.60;0.50;;;;;;;18.17;48.57;98337.63;16113557;19;130304;-46
2022/11/17 06:28:14;;;;;;;2.00;0.45;;;;;;;18.17;48.08;98338.44;16115295;19;134492;-46
2022/11/17 06:33:38;;;;;;;5.93;0.50;;;;;;;18.18;48.41;98348.38;16125018;19;135511;-45
2022/11/17 06:39:00;;;;;;;6.43;0.55;;;;;;;18.19;48.26;98360.28;16133233;19;129418;-44
2022/11/17 06:44:22;;;;;;;10.15;1.10;;;;;;;18.18;48.16;98355.88;16132524;19;130386;-43
2022/11/17 06:49:44;;;;;;;5.78;0.70;;;;;;;18.18;48.11;98366.94;16131722;19;130594;-43
2022/11/17 06:55:06;;;;;;;5.50;0.90;;;;;;;18.17;47.90;98370.84;16133238;19;130099;-47
2022/11/17 07:00:29;;;;;;;7.70;0.90;;;;;;;18.15;48.06;98363.66;16133841;19;129313;-45
2022/11/17 07:05:51;;;;;;;8.88;0.68;;;;;;;18.15;47.94;98384.97;16132678;19;130065;-44
2022/11/17 07:11:15;;;;;;;7.68;0.70;;;;;;;18.14;48.09;98383.34;16129605;19;130589;-46
2022/11/17 07:16:37;;;;;;;6.95;0.85;;;;;;;18.11;48.26;98389.47;16130753;19;129559;-46
2022/11/17 07:21:58;;;;;;;9.90;0.70;;;;;;;18.11;48.33;98395.81;16133308;19;130495;-46
2022/11/17 07:27:20;;;;;;;8.60;0.68;;;;;;;18.10;47.92;98398.91;16132871;19;129903;-44
2022/11/17 07:32:42;;;;;;;9.60;0.88;;;;;;;18.08;48.35;98401.97;16129538;19;129258;-45
2022/11/17 07:38:04;;;;;;;8.63;0.95;;;;;;;18.07;48.05;98403.09;16130433;19;128976;-44
2022/11/17 07:43:26;;;;;;;9.93;1.10;;;;;;;18.06;47.99;98423.59;16131244;19;130297;-46
2022/11/17 07:48:48;;;;;;;5.75;0.63;;;;;;;18.05;48.33;98419.19;16125167;19;130746;-46
2022/11/17 07:54:09;;;;;;;5.03;0.70;;;;;;;18.05;48.35;98430.25;16129120;19;128896;-44
2022/11/17 07:59:31;;;;;;;8.77;0.70;;;;;;;18.04;47.87;98439.66;16129619;19;129505;-44
2022/11/17 08:04:53;;;;;;;3.25;0.40;;;;;;;18.04;48.28;98449.91;16133806;19;129947;-46
2022/11/17 08:10:15;;;;;;;4.13;0.40;;;;;;;18.04;48.06;98456.28;16128917;19;129680;-42
2022/11/17 08:15:37;;;;;;;4.03;0.45;;;;;;;18.04;47.78;98463.72;16126193;19;129551;-42
2022/11/17 08:21:13;;;;;;;8.55;0.50;;;;;;;18.06;47.98;98478.09;16126480;19;129216;-42
2022/11/17 08:26:34;;;;;;;1.33;0.30;;;;;;;18.04;47.69;98483.94;16127933;19;129692;-43
2022/11/17 08:31:56;;;;;;;4.40;0.35;;;;;;;18.04;48.14;98489.47;16125177;19;129785;-42
2022/11/17 08:37:18;;;;;;;3.22;0.43;;;;;;;18.05;48.15;98498.56;16126688;19;129351;-42
2022/11/17 08:42:40;;;;;;;1.48;0.28;;;;;;;18.05;48.04;98506.88;16125907;19;129194;-42
2022/11/17 08:48:03;;;;;;;4.00;0.45;;;;;;;18.05;48.06;98510.47;16125459;19;129960;-42
2022/11/17 08:53:24;;;;;;;3.83;0.43;;;;;;;18.06;47.69;98519.59;16123754;19;130260;-42
2022/11/17 08:58:46;;;;;;;2.67;0.40;;;;;;;18.05;47.71;98535.38;16123677;19;129595;-42
2022/11/17 09:04:08;;;;;;;1.85;0.40;;;;;;;18.06;47.93;98542.56;16123446;19;129406;-42
2022/11/17 09:09:31;;;;;;;0.60;0.40;;;;;;;18.06;47.68;98544.50;16120946;19;129401;-43
2022/11/17 09:14:52;;;;;;;2.40;0.40;;;;;;;18.06;47.88;98548.09;16122648;19;129525;-42
2022/11/17 09:20:16;;;;;;;1.83;0.40;;;;;;;18.06;47.41;98553.63;16121413;19;130019;-42
2022/11/17 09:25:38;;;;;;;7.38;0.22;;;;;;;18.06;47.41;98564.69;16120982;19;129371;-43
2022/11/17 09:31:08;;;;;;;2.33;0.30;;;;;;;18.07;47.54;98571.88;16120993;19;129537;-43
2022/11/17 09:36:31;;;;;;;4.85;0.20;;;;;;;18.07;47.71;98584.88;16120377;19;134123;-42
2022/11/17 09:41:54;;;;;;;2.45;0.30;;;;;;;18.06;47.46;98592.38;16123348;19;130138;-42
2022/11/17 09:47:37;;;;;;;2.45;0.38;;;;;;;18.07;47.53;98602.31;16121796;19;129258;-43
2022/11/17 09:53:14;;;;;;;1.52;0.65;;;;;;;18.06;47.53;98608.97;16121807;19;130172;-43
2022/11/17 09:58:45;;;;;;;1.40;0.20;;;;;;;18.06;47.25;98620.03;16119941;19;129621;-43
2022/11/17 10:04:12;;;;;;;3.22;0.93;;;;;;;18.05;47.41;98623.91;16120868;19;129516;-43
2022/11/17 10:09:40;;;;;;;5.53;0.60;;;;;;;18.05;47.08;98617.53;16133268;19;129710;-42
2022/11/17 10:15:21;;;;;;;1.73;0.30;;;;;;;18.05;46.89;98629.44;16138694;19;129460;-42
2022/11/17 10:20:44;;;;;;;1.67;0.55;;;;;;;18.02;47.30;98635.56;16134428;19;129673;-42
2022/11/17 10:26:12;;;;;;;0.65;0.20;;;;;;;18.04;47.17;98649.09;16134224;19;129949;-42
2022/11/17 10:31:44;;;;;;;2.63;0.43;;;;;;;18.06;47.02;98646.84;16135181;19;129379;-42
2022/11/17 10:37:30;;;;;;;3.55;0.50;;;;;;;18.07;46.74;98652.13;16132639;19;129648;-43
2022/11/17 10:43:21;;;;;;;2.03;0.20;;;;;;;18.09;47.11;98657.34;16137434;19;129443;-43
2022/11/17 10:48:59;;;;;;;1.92;0.30;;;;;;;18.10;46.65;98659.78;16132203;19;129627;-42
2022/11/17 10:54:21;;;;;;;1.33;0.25;;;;;;;18.08;47.09;98667.59;16133081;19;129446;-42
2022/11/17 10:59:51;;;;;;;2.20;0.30;;;;;;;18.10;46.37;98659.78;16132915;19;129384;-42
2022/11/17 11:05:20;;;;;;;1.33;0.40;;;;;;;18.08;46.35;98670.38;16132246;19;129363;-42
2022/11/17 11:10:48;;;;;;;1.27;0.40;;;;;;;18.11;46.88;98680.00;16127050;19;129597;-42
2022/11/17 11:16:10;;;;;;;3.58;0.40;;;;;;;18.10;46.87;98681.94;16130330;19;130932;-43
2022/11/17 11:21:51;;;;;;;1.33;0.20;;;;;;;18.12;46.30;98684.41;16130788;19;130521;-43
2022/11/17 11:27:25;;;;;;;0.50;0.20;;;;;;;18.12;46.34;98688.00;16130601;19;129271;-42
2022/11/17 11:33:04;;;;;;;1.35;0.20;;;;;;;18.11;46.74;98689.13;16131272;19;129216;-42
2022/11/17 11:38:50;;;;;;;1.98;0.38;;;;;;;18.12;46.64;98696.28;16130414;19;129600;-35
2022/11/17 11:44:18;;;;;;;1.90;0.30;;;;;;;18.12;46.71;98701.03;16130505;19;135668;-35
2022/11/17 11:50:01;;;;;;;10.73;0.73;;;;;;;18.12;46.50;98701.03;16125545;19;129426;-34
2022/11/17 11:55:29;;;;;;;1.60;0.47;;;;;;;18.10;46.25;98703.25;16117778;19;130051;-34
2022/11/17 12:00:57;;;;;;;1.13;0.28;;;;;;;18.10;46.49;98720.66;16122918;19;130539;-34
2022/11/17 12:06:40;;;;;;;2.42;0.50;;;;;;;18.13;46.34;98714.56;16116919;19;131252;-34
2022/11/17 12:12:08;;;;;;;1.25;0.20;;;;;;;18.11;46.08;98715.97;16123796;19;129568;-32
2022/11/17 12:17:30;;;;;;;2.47;0.52;;;;;;;18.09;46.13;98724.56;16126261;19;129527;-34
2022/11/17 12:23:01;;;;;;;1.25;0.32;;;;;;;18.09;45.45;98730.09;16127939;19;129380;-34
2022/11/17 12:28:26;;;;;;;1.38;0.40;;;;;;;18.08;45.53;98745.06;16125508;19;129018;-34
2022/11/17 12:33:50;;;;;;;2.40;0.43;;;;;;;18.08;45.33;98733.16;16127280;19;129791;-34
2022/11/17 12:39:50;;;;;;;2.28;0.60;;;;;;;18.08;44.98;98735.94;16128501;19;129517;-34
2022/11/17 12:45:12;;;;;;;1.58;0.47;;;;;;;18.05;45.50;98740.13;16129618;19;129865;-34
2022/11/17 12:50:45;;;;;;;2.38;0.40;;;;;;;18.04;45.16;98735.72;16127561;19;129457;-34
2022/11/17 12:56:31;;;;;;;0.95;0.40;;;;;;;18.05;44.75;98744.81;16127099;19;129462;-34
2022/11/17 13:02:44;;;;;;;3.85;0.40;;;;;;;18.03;44.58;98753.41;16127918;19;129745;-34
2022/11/17 13:08:10;;;;;;;3.80;0.40;;;;;;;18.02;45.15;98750.97;16123475;19;129797;-34
2022/11/17 13:13:32;;;;;;;3.75;0.50;;;;;;;18.02;44.77;98756.50;16124669;19;129867;-34
2022/11/17 13:18:57;;;;;;;2.10;0.43;;;;;;;18.00;44.48;98759.53;16122022;19;129457;-34
2022/11/17 13:24:29;;;;;;;0.95;0.30;;;;;;;18.02;44.36;98782.22;16118937;19;130587;-34
2022/11/17 13:30:11;;;;;;;1.45;0.50;;;;;;;18.01;44.48;98783.31;16114549;19;129650;-34
2022/11/17 13:35:35;;;;;;;4.65;0.52;;;;;;;17.98;44.62;98803.28;16115260;19;129459;-34
2022/11/17 13:40:57;;;;;;;4.25;0.40;;;;;;;17.96;44.29;98794.47;16125759;19;129435;-34
2022/11/17 13:46:20;;;;;;;16.27;0.70;;;;;;;18.00;44.06;98803.81;16134921;19;129949;-34
2022/11/17 13:51:43;;;;;;;2.53;0.40;;;;;;;17.97;43.81;98794.16;16131909;19;129257;-35
2022/11/17 13:57:07;;;;;;;9.02;0.70;;;;;;;17.93;43.95;98803.34;16136217;19;129741;-34
2022/11/17 14:02:30;;;;;;;3.25;0.45;;;;;;;17.89;43.50;98805.03;16137001;19;129535;-34
2022/11/17 14:07:55;;;;;;;2.40;0.40;;;;;;;17.85;43.73;98802.84;16140018;19;129548;-34
2022/11/17 14:13:21;;;;;;;1.87;0.30;;;;;;;17.85;43.59;98793.75;16137530;19;129973;-34
2022/11/17 14:19:03;;;;;;;1.10;0.25;;;;;;;17.84;43.39;98806.75;16134027;19;129437;-34
2022/11/17 14:24:26;;;;;;;6.60;0.70;;;;;;;17.81;43.42;98818.41;16135363;19;129589;-34
2022/11/17 14:29:48;;;;;;;1.65;0.40;;;;;;;17.81;42.89;98815.63;16133521;19;129560;-35
2022/11/17 14:35:15;;;;;;;1.48;0.40;;;;;;;17.82;43.13;98813.69;16135449;19;129137;-34
2022/11/17 14:40:38;;;;;;;1.98;0.35;;;;;;;17.81;42.68;98817.56;16134136;19;129595;-34
2022/11/17 14:46:00;;;;;;;2.65;0.40;;;;;;;17.79;42.87;98820.63;16132894;19;129568;-35
2022/11/17 14:51:22;;;;;;;2.47;0.50;;;;;;;17.78;42.95;98829.22;16130965;19;129895;-34
2022/11/17 14:56:44;;;;;;;3.10;0.98;;;;;;;17.77;42.77;98842.22;16128099;19;129117;-34
2022/11/17 15:02:05;;;;;;;3.03;0.45;;;;;;;17.76;42.63;98854.41;16131667;19;132387;-35
2022/11/17 15:07:27;;;;;;;1.15;0.30;;;;;;;17.76;42.83;98859.13;16131472;19;129611;-34
2022/11/17 15:12:49;;;;;;;3.17;0.70;;;;;;;17.75;42.84;98860.22;16132964;19;129389;-35
2022/11/17 15:18:11;;;;;;;1.83;0.50;;;;;;;17.73;42.75;98876.28;16133112;19;129654;-34
2022/11/17 15:23:36;;;;;;;2.45;0.40;;;;;;;17.71;42.80;98879.34;16130801;19;129685;-34
2022/11/17 15:28:57;;;;;;;5.22;0.50;;;;;;;17.68;42.43;98875.19;16130301;19;130086;-34
2022/11/17 15:34:19;;;;;;;4.65;0.68;;;;;;;17.68;42.41;98877.16;16132872;19;133968;-34
2022/11/17 15:39:41;;;;;;;1.52;0.35;;;;;;;17.67;42.24;98883.78;16131380;19;130099;-34
2022/11/17 15:45:03;;;;;;;3.10;0.50;;;;;;;17.66;42.32;98894.03;16130319;19;129264;-35
2022/11/17 15:50:25;;;;;;;1.80;0.40;;;;;;;17.64;42.17;98901.81;16130198;19;130039;-34
2022/11/17 15:55:47;;;;;;;2.75;0.40;;;;;;;17.63;42.18;98905.69;16130937;19;129554;-34
2022/11/17 16:01:13;;;;;;;3.92;0.45;;;;;;;17.63;42.29;98911.22;16130759;19;129804;-34
2022/11/17 16:06:35;;;;;;;;;;;;;;;17.57;42.48;98912.34;16126716;19;129633;-35
2022/11/17 16:11:57;;;;;;;3.13;0.30;;;;;;;17.59;42.21;98931.44;16125285;19;129155;-34
2022/11/17 16:17:19;;;;;;;2.45;0.70;;;;;;;17.57;42.11;98934.47;16126476;19;129862;-34
2022/11/17 16:22:41;;;;;;;1.25;0.47;;;;;;;17.58;42.06;98943.59;16124887;19;128880;-34
2022/11/17 16:28:02;;;;;;;3.08;0.50;;;;;;;17.57;42.34;98939.19;16124358;19;129844;-34
2022/11/17 16:33:25;;;;;;;1.27;0.30;;;;;;;17.57;42.41;98955.78;16121678;19;130344;-34
2022/11/17 16:38:53;;;;;;;1.92;0.40;;;;;;;17.62;41.99;98958.50;16118967;19;129625;-34
2022/11/17 16:44:21;;;;;;;0.70;0.30;;;;;;;17.62;42.61;98950.19;16122994;19;129485;-34
2022/11/17 16:49:43;;;;;;;1.88;0.40;;;;;;;17.63;42.53;98949.06;16123952;19;129496;-34
2022/11/17 16:55:12;;;;;;;1.00;0.30;;;;;;;17.66;42.68;98970.63;16126143;19;129903;-34
2022/11/17 17:00:33;;;;;;;3.15;0.38;;;;;;;17.68;42.49;98973.94;16124428;19;129859;-35
2022/11/17 17:05:55;;;;;;;1.67;0.35;;;;;;;17.67;42.60;98975.06;16124087;19;129797;-34
2022/11/17 17:11:17;;;;;;;2.42;0.57;;;;;;;17.69;42.89;98981.13;16123600;19;130263;-34
2022/11/17 17:16:39;;;;;;;1.30;0.38;;;;;;;17.69;42.81;98981.94;16118583;19;129659;-34
2022/11/17 17:22:01;;;;;;;1.45;0.30;;;;;;;17.70;43.08;98988.31;16123503;19;130600;-34
2022/11/17 17:27:23;;;;;;;1.88;0.30;;;;;;;17.69;43.13;99000.50;16121055;19;129485;-34
2022/11/17 17:32:45;;;;;;;1.88;0.30;;;;;;;17.68;43.05;99001.59;16119464;19;129545;-34
2022/11/17 17:38:06;;;;;;;1.65;0.40;;;;;;;17.68;43.21;99012.66;16120062;19;129959;-34
2022/11/17 17:43:28;;;;;;;1.52;0.50;;;;;;;17.68;43.16;99019.00;16119949;19;130304;-34
2022/11/17 17:48:50;;;;;;;0.90;0.55;;;;;;;17.68;42.98;99023.72;16121667;19;129536;-34
2022/11/17 17:54:18;;;;;;;0.22;0.20;;;;;;;17.69;43.39;99037.25;16122560;19;129454;-34
2022/11/17 17:59:40;;;;;;;3.17;0.50;;;;;;;17.69;43.38;99039.19;16121479;19;129540;-34
2022/11/17 18:05:02;;;;;;;2.45;0.60;;;;;;;17.69;43.32;99042.78;16119311;19;129635;-34
2022/11/17 18:10:24;;;;;;;1.77;0.63;;;;;;;17.69;43.55;99050.25;16118809;19;129697;-34
2022/11/17 18:15:46;;;;;;;3.40;0.50;;;;;;;17.68;43.53;99043.88;16118205;19;129014;-34
2022/11/17 18:21:10;;;;;;;1.27;0.50;;;;;;;17.69;43.61;99055.78;16120152;19;129501;-35
2022/11/17 18:26:34;;;;;;;5.13;0.65;;;;;;;17.68;43.74;99051.38;16117702;19;129533;-34
2022/11/17 18:31:55;;;;;;;1.85;0.45;;;;;;;17.68;43.69;99067.97;16134098;19;133806;-34
2022/11/17 18:37:17;;;;;;;3.47;0.50;;;;;;;17.68;43.86;99067.97;16133212;19;129590;-34
2022/11/17 18:42:39;;;;;;;6.43;0.50;;;;;;;17.68;43.90;99070.72;16051608;19;129748;-34
2022/11/17 18:48:01;;;;;;;22.38;1.48;;;;;;;17.74;44.43;99077.06;16130389;19;129563;-34
2022/11/17 18:53:22;;;;;;;15.40;1.33;;;;;;;17.89;44.54;99076.13;16129890;19;129794;-34
2022/11/17 18:58:44;;;;;;;9.07;0.80;;;;;;;18.35;44.30;99086.03;16130649;19;129595;-34
2022/11/17 19:04:06;;;;;;;8.85;1.17;;;;;;;18.92;43.49;99083.63;16130914;19;129404;-34
2022/11/17 19:09:28;;;;;;;8.18;1.08;;;;;;;19.45;43.34;99096.63;16127164;19;130128;-35
2022/11/17 19:14:50;;;;;;;23.77;1.25;;;;;;;19.84;42.98;99091.94;16126061;19;129432;-35
2022/11/17 19:20:12;;;;;;;17.25;1.25;;;;;;;20.02;42.77;99103.38;16129525;19;129554;-35
2022/11/17 19:25:41;;;;;;;17.67;0.90;;;;;;;20.10;42.35;99105.47;16127389;19;129971;-35
2022/11/17 19:31:07;;;;;;;12.85;1.30;;;;;;;20.06;42.18;99110.00;16123737;19;130226;-35
2022/11/17 19:36:31;;;;;;;18.15;1.90;;;;;;;19.97;42.26;99112.56;16127987;19;129304;-35
2022/11/17 19:41:53;;;;;;;6.03;0.98;;;;;;;19.90;42.88;99129.59;16124804;19;131073;-34
2022/11/17 19:47:15;;;;;;;20.63;1.23;;;;;;;19.82;42.77;99127.47;16129193;19;129083;-35
2022/11/17 19:52:37;;;;;;;11.75;0.98;;;;;;;19.73;43.17;99134.81;16124241;19;129611;-35
2022/11/17 19:57:58;;;;;;;17.95;0.90;;;;;;;19.65;42.96;99145.47;16129743;19;129421;-42
2022/11/17 20:03:20;;;;;;;11.20;1.40;;;;;;;19.56;42.90;99147.25;16128313;19;129509;-42
2022/11/17 20:08:42;;;;;;;6.90;1.02;;;;;;;19.45;43.48;99154.00;16124673;19;130772;-43
2022/11/17 20:14:04;;;;;;;5.82;1.00;;;;;;;19.36;43.37;99149.13;16127952;19;129428;-43
2022/11/17 20:19:26;;;;;;;14.23;1.45;;;;;;;19.32;43.27;99159.13;16127935;19;129437;-43
2022/11/17 20:24:47;;;;;;;10.05;0.90;;;;;;;19.34;43.62;99168.00;16128106;19;129374;-43
2022/11/17 20:30:09;;;;;;;9.88;0.90;;;;;;;19.42;43.56;99176.81;16125377;19;129460;-43
2022/11/17 20:35:36;;;;;;;9.32;0.90;;;;;;;19.52;43.23;99173.91;16125169;19;132812;-43
2022/11/17 20:40:59;;;;;;;8.40;1.08;;;;;;;19.62;43.42;99173.78;16125256;19;129608;-43
2022/11/17 20:46:21;;;;;;;8.93;0.85;;;;;;;19.71;43.52;99192.53;16127000;19;129490;-43
2022/11/17 20:51:44;;;;;;;7.10;0.90;;;;;;;19.81;43.40;99198.81;16122391;19;129847;-42
2022/11/17 20:57:05;;;;;;;15.68;1.75;;;;;;;19.89;43.29;99204.81;16123601;19;129528;-42
2022/11/17 21:02:27;;;;;;;11.63;0.70;;;;;;;19.95;43.27;99210.00;16121182;19;129104;-42
2022/11/17 21:07:49;;;;;;;10.15;1.05;;;;;;;20.01;43.49;99215.53;16123476;19;129845;-43
2022/11/17 21:13:10;;;;;;;14.35;0.85;;;;;;;20.02;43.59;99219.97;16123127;19;133550;-44
2022/11/17 21:18:33;;;;;;;15.07;0.95;;;;;;;19.98;43.93;99220.50;16121709;19;129841;-43
2022/11/17 21:23:55;;;;;;;17.55;1.10;;;;;;;19.93;43.68;99228.91;16124023;19;129486;-43
2022/11/17 21:29:17;;;;;;;10.10;0.93;;;;;;;19.84;44.18;99237.06;16118571;19;129234;-43
2022/11/17 21:34:39;;;;;;;16.30;1.50;;;;;;;19.77;44.18;99242.13;16119132;19;129490;-43
2022/11/17 21:40:00;;;;;;;9.88;1.10;;;;;;;19.72;44.15;99260.78;16117108;19;129844;-42
2022/11/17 21:45:22;;;;;;;12.35;1.10;;;;;;;19.64;44.30;99260.31;16106252;19;129923;-43
2022/11/17 21:50:44;;;;;;;9.52;0.75;;;;;;;19.58;44.41;99261.47;16117080;19;129408;-43
2022/11/17 21:56:06;;;;;;;12.60;0.98;;;;;;;19.55;44.61;99272.34;16120159;19;131068;-43
2022/11/17 22:01:29;;;;;;;16.65;1.25;;;;;;;19.52;44.73;99279.31;16120037;19;129639;-43
2022/11/17 22:06:51;;;;;;;26.58;1.67;;;;;;;19.49;45.08;99277.97;16132227;19;130809;-44
2022/11/17 22:12:13;;;;;;;13.73;1.05;;;;;;;19.43;44.83;99286.63;16134439;19;130015;-42
2022/11/17 22:17:35;;;;;;;15.35;1.35;;;;;;;19.35;44.82;99288.88;16135028;19;129345;-43
2022/11/17 22:22:56;;;;;;;8.63;1.13;;;;;;;19.28;44.89;99284.78;16132241;19;130175;-43
2022/11/17 22:28:18;;;;;;;15.40;1.10;;;;;;;19.20;45.12;99289.81;16129679;19;130680;-43
2022/11/17 22:33:44;;;;;;;5.50;0.77;;;;;;;19.16;44.82;99293.47;16133622;19;129641;-43
2022/11/17 22:39:06;;;;;;;13.18;0.70;;;;;;;19.07;44.88;99302.41;16135204;19;129672;-43
2022/11/17 22:44:28;;;;;;;11.50;0.75;;;;;;;19.05;45.08;99310.19;16131033;19;129246;-43
2022/11/17 22:49:50;;;;;;;14.57;0.75;;;;;;;19.00;44.71;99315.75;16134320;19;130646;-42
2022/11/17 22:55:11;;;;;;;10.48;0.70;;;;;;;18.97;44.92;99319.09;16129596;19;128933;-43
2022/11/17 23:00:33;;;;;;;6.03;0.68;;;;;;;18.93;44.66;99329.13;16132171;19;130628;-43
2022/11/17 23:05:59;;;;;;;4.93;0.80;;;;;;;18.87;44.66;99331.09;16135959;19;129833;-42
2022/11/17 23:11:22;;;;;;;2.28;0.43;;;;;;;18.82;44.63;99344.16;16131281;19;129716;-43
2022/11/17 23:16:58;;;;;;;5.18;0.60;;;;;;;18.80;44.72;99343.59;16129228;19;129362;-43
2022/11/17 23:22:20;;;;;;;2.20;0.52;;;;;;;18.74;45.09;99349.16;16132776;19;129887;-43
2022/11/17 23:27:41;;;;;;;1.75;0.40;;;;;;;18.72;45.08;99356.94;16129590;19;129150;-43
2022/11/17 23:33:03;;;;;;;2.42;0.80;;;;;;;18.70;44.66;99363.88;16131794;19;129888;-43
2022/11/17 23:38:25;;;;;;;4.35;0.50;;;;;;;18.68;45.00;99371.63;16130218;19;130164;-43
2022/11/17 23:43:51;;;;;;;5.80;0.73;;;;;;;18.66;44.66;99373.84;16130747;19;129520;-43
2022/11/17 23:49:13;;;;;;;2.15;0.50;;;;;;;18.62;44.65;99368.06;16130290;19;130042;-43
2022/11/17 23:54:35;;;;;;;1.85;0.50;;;;;;;18.57;44.68;99371.69;16127088;19;130501;-43
2022/11/17 23:59:57;;;;;;;1.88;0.40;;;;;;;18.55;44.89;99396.06;16126869;19;130682;-43
